createdAt,value
2022-09-06T00:00:59.027Z,101757.41
2022-09-06T00:03:27.580Z,101773.97
2022-09-06T00:05:54.405Z,101768.84
2022-09-06T00:08:21.032Z,101768.84
2022-09-06T00:10:47.452Z,101750.47
2022-09-06T00:13:13.792Z,101748.66
2022-09-06T00:15:40.590Z,101739.13
2022-09-06T00:18:07.510Z,101733.88
2022-09-06T00:20:34.716Z,101747.97
2022-09-06T00:23:04.018Z,101747.84
2022-09-06T00:25:31.434Z,101751.41
2022-09-06T00:28:03.077Z,101761.09
2022-09-06T00:30:30.644Z,101765.34
2022-09-06T00:32:57.386Z,101769.78
2022-09-06T00:35:25.057Z,101769.78
2022-09-06T00:37:56.038Z,101763.72
2022-09-06T00:40:22.400Z,101747.13
2022-09-06T00:42:48.746Z,101736.63
2022-09-06T00:45:15.392Z,101736.63
2022-09-06T00:47:43.151Z,101737.59
2022-09-06T00:50:12.856Z,101741.03
2022-09-06T00:52:40.672Z,101746.28
2022-09-06T00:55:07.652Z,101749.75
2022-09-06T00:57:34.948Z,101748.09
2022-09-06T01:00:04.220Z,101755.97
2022-09-06T01:02:30.722Z,101759.41
2022-09-06T01:04:57.564Z,101755.97
2022-09-06T01:07:46.788Z,101749.03
2022-09-06T01:10:55.136Z,101768.22
2022-09-06T01:13:37.523Z,101768.09
2022-09-06T01:16:38.557Z,101776.94
2022-09-06T01:19:07.861Z,101776.94
2022-09-06T01:21:46.516Z,101783.13
2022-09-06T01:24:50.470Z,101777.88
2022-09-06T01:27:25.664Z,101776.09
2022-09-06T01:30:05.115Z,101777.88
2022-09-06T01:33:00.211Z,101788.38
2022-09-06T01:35:41.555Z,101774.44
2022-09-06T01:38:08.607Z,101772.63
2022-09-06T01:40:36.403Z,101763.09
2022-09-06T01:43:10.191Z,101753.56
2022-09-06T01:46:00.511Z,101742.09
2022-09-06T01:48:51.983Z,101733.41
2022-09-06T01:51:27.445Z,101735.22
2022-09-06T01:54:12.490Z,101736.84
2022-09-06T01:57:05.131Z,101727.34
2022-09-06T02:00:08.999Z,101716.97
2022-09-06T02:02:52.497Z,101715.06
2022-09-06T02:05:45.112Z,101711.63
2022-09-06T02:08:17.306Z,101709.00
2022-09-06T02:10:50.395Z,101701.13
2022-09-06T02:13:19.733Z,101700.25
2022-09-06T02:15:56.099Z,101683.72
2022-09-06T02:18:29.182Z,101674.03
2022-09-06T02:20:58.559Z,101658.44
2022-09-06T02:23:29.016Z,101644.38
2022-09-06T02:26:24.298Z,101622.56
2022-09-06T02:28:50.707Z,101606.84
2022-09-06T02:31:23.608Z,101592.03
2022-09-06T02:33:51.716Z,101582.38
2022-09-06T02:36:19.027Z,101580.63
2022-09-06T02:38:46.442Z,101572.84
2022-09-06T02:41:15.837Z,101572.84
2022-09-06T02:43:42.851Z,101561.41
2022-09-06T02:46:09.331Z,101581.56
2022-09-06T02:48:35.993Z,101580.69
2022-09-06T02:51:04.543Z,101581.69
2022-09-06T02:53:31.442Z,101577.25
2022-09-06T02:55:58.081Z,101572.97
2022-09-06T02:58:24.601Z,101581.69
2022-09-06T03:00:52.231Z,101588.69
2022-09-06T03:03:22.001Z,101594.66
2022-09-06T03:05:50.763Z,101584.31
2022-09-06T03:08:18.348Z,101590.50
2022-09-06T03:10:49.780Z,101586.94
2022-09-06T03:13:16.511Z,101577.38
2022-09-06T03:15:42.923Z,101584.41
2022-09-06T03:18:09.325Z,101580.00
2022-09-06T03:20:37.284Z,101585.25
2022-09-06T03:23:03.815Z,101587.03
2022-09-06T03:25:30.154Z,101589.66
2022-09-06T03:27:56.505Z,101588.78
2022-09-06T03:30:22.889Z,101590.59
2022-09-06T03:32:49.303Z,101594.03
2022-09-06T03:35:15.756Z,101601.88
2022-09-06T03:37:42.111Z,101606.31
2022-09-06T03:40:09.263Z,101602.88
2022-09-06T03:42:35.678Z,101601.06
2022-09-06T03:45:02.088Z,101598.44
2022-09-06T03:47:28.471Z,101595.81
2022-09-06T03:49:54.864Z,101606.44
2022-09-06T03:52:21.350Z,101598.56
2022-09-06T03:54:47.699Z,101602.88
2022-09-06T03:57:14.191Z,101612.50
2022-09-06T03:59:40.640Z,101611.69
2022-09-06T04:02:07.165Z,101611.69
2022-09-06T04:04:33.958Z,101610.97
2022-09-06T04:07:00.307Z,101622.16
2022-09-06T04:09:26.655Z,101613.47
2022-09-06T04:11:53.040Z,101640.63
2022-09-06T04:14:19.397Z,101637.06
2022-09-06T04:16:45.958Z,101623.97
2022-09-06T04:19:12.410Z,101630.16
2022-09-06T04:21:38.844Z,101640.63
2022-09-06T04:24:05.200Z,101642.31
2022-09-06T04:26:31.551Z,101633.72
2022-09-06T04:28:57.981Z,101637.19
2022-09-06T04:31:24.667Z,101634.56
2022-09-06T04:33:51.068Z,101641.59
2022-09-06T04:36:17.584Z,101639.81
2022-09-06T04:38:44.987Z,101646.00
2022-09-06T04:41:13.756Z,101654.69
2022-09-06T04:43:40.227Z,101654.69
2022-09-06T04:46:10.463Z,101657.31
2022-09-06T04:48:36.872Z,101664.34
2022-09-06T04:51:03.235Z,101656.50
2022-09-06T04:53:29.615Z,101656.50
2022-09-06T04:55:59.259Z,101661.84
2022-09-06T04:58:26.019Z,101677.47
2022-09-06T05:00:52.538Z,101674.84
2022-09-06T05:03:18.956Z,101681.84
2022-09-06T05:05:45.313Z,101673.16
2022-09-06T05:08:11.667Z,101675.78
2022-09-06T05:10:38.439Z,101669.72
2022-09-06T05:13:04.805Z,101671.50
2022-09-06T05:15:31.159Z,101680.22
2022-09-06T05:18:04.874Z,101683.78
2022-09-06T05:20:31.397Z,101681.03
2022-09-06T05:22:57.793Z,101680.22
2022-09-06T05:25:24.151Z,101687.22
2022-09-06T05:27:50.501Z,101688.06
2022-09-06T05:30:18.044Z,101685.47
2022-09-06T05:32:44.552Z,101687.22
2022-09-06T05:35:10.908Z,101693.56
2022-09-06T05:37:37.268Z,101696.75
2022-09-06T05:40:03.856Z,101708.63
2022-09-06T05:42:30.278Z,101708.16
2022-09-06T05:44:56.616Z,101711.25
2022-09-06T05:47:23.004Z,101713.25
2022-09-06T05:49:49.347Z,101711.69
2022-09-06T05:52:17.280Z,101709.28
2022-09-06T05:54:43.927Z,101704.19
2022-09-06T05:57:10.360Z,101697.28
2022-09-06T05:59:37.431Z,101686.88
2022-09-06T06:02:07.198Z,101686.19
2022-09-06T06:04:34.350Z,101689.97
2022-09-06T06:07:00.755Z,101698.06
2022-09-06T06:09:27.165Z,101700.69
2022-09-06T06:11:53.611Z,101700.69
2022-09-06T06:14:20.030Z,101706.88
2022-09-06T06:16:46.443Z,101703.53
2022-09-06T06:19:12.887Z,101707.09
2022-09-06T06:21:39.365Z,101714.13
2022-09-06T06:24:06.374Z,101707.94
2022-09-06T06:26:34.819Z,101703.94
2022-09-06T06:29:05.572Z,101696.31
2022-09-06T06:31:33.130Z,101689.78
2022-09-06T06:34:02.707Z,101686.81
2022-09-06T06:36:31.508Z,101692.69
2022-09-06T06:38:58.730Z,101686.38
2022-09-06T06:41:28.261Z,101695.78
2022-09-06T06:44:01.279Z,101689.47
2022-09-06T06:46:35.828Z,101678.88
2022-09-06T06:49:02.498Z,101675.31
2022-09-06T06:51:31.849Z,101669.94
2022-09-06T06:53:58.903Z,101679.47
2022-09-06T06:56:31.267Z,101675.06
2022-09-06T06:58:59.914Z,101680.19
2022-09-06T07:01:29.216Z,101675.78
2022-09-06T07:03:56.028Z,101681.00
2022-09-06T07:09:09.975Z,101663.41
2022-09-06T07:11:36.315Z,101663.28
2022-09-06T07:14:02.647Z,101660.53
2022-09-06T07:16:29.983Z,101655.28
2022-09-06T07:18:56.411Z,101645.63
2022-09-06T07:21:42.211Z,101652.44
2022-09-06T07:24:09.458Z,101644.56
2022-09-06T07:26:38.224Z,101642.78
2022-09-06T07:29:05.998Z,101634.91
2022-09-06T07:34:20.316Z,101642.66
2022-09-06T07:36:46.731Z,101648.63
2022-09-06T07:39:14.060Z,101653.88
2022-09-06T07:41:40.723Z,101655.56
2022-09-06T07:44:07.133Z,101651.25
2022-09-06T07:46:33.547Z,101657.31
2022-09-06T07:48:59.959Z,101654.69
2022-09-06T07:51:26.368Z,101662.44
2022-09-06T07:54:12.780Z,101660.78
2022-09-06T07:56:39.567Z,101665.41
2022-09-06T07:59:06.139Z,101663.97
2022-09-06T08:01:35.364Z,101660.66
2022-09-06T08:04:04.788Z,101663.41
2022-09-06T08:09:20.247Z,101647.44
2022-09-06T08:11:46.668Z,101635.16
2022-09-06T08:14:13.091Z,101651.50
2022-09-06T08:16:39.517Z,101641.81
2022-09-06T08:19:08.774Z,101646.94
2022-09-06T08:21:35.456Z,101642.44
2022-09-06T08:24:07.042Z,101644.09
2022-09-06T08:26:35.376Z,101642.19
2022-09-06T08:29:05.792Z,101639.50
2022-09-06T08:31:33.871Z,101633.28
2022-09-06T08:34:01.202Z,101628.03
2022-09-06T08:36:31.439Z,101630.53
2022-09-06T08:38:59.146Z,101638.38
2022-09-06T08:41:31.682Z,101633.16
2022-09-06T08:47:19.168Z,101623.38
2022-09-06T08:49:54.607Z,101617.31
2022-09-06T08:52:27.130Z,101623.28
2022-09-06T08:55:02.473Z,101618.03
2022-09-06T08:58:00.782Z,101612.78
2022-09-06T09:00:27.284Z,101605.75
2022-09-06T09:03:06.902Z,101605.75
2022-09-06T09:05:36.039Z,101610.84
2022-09-06T09:08:25.830Z,101610.75
2022-09-06T09:10:58.817Z,101612.53
2022-09-06T09:13:35.954Z,101607.16
2022-09-06T09:16:02.675Z,101611.59
2022-09-06T09:18:33.469Z,101609.78
2022-09-06T09:21:00.041Z,101608.84
2022-09-06T09:23:28.808Z,101612.28
2022-09-06T09:26:02.335Z,101615.78
2022-09-06T09:28:28.897Z,101619.22
2022-09-06T09:30:56.818Z,101599.06
2022-09-06T09:33:25.651Z,101598.13
2022-09-06T09:35:52.653Z,101594.66
2022-09-06T09:38:26.614Z,101601.44
2022-09-06T09:40:55.798Z,101597.03
2022-09-06T09:43:35.605Z,101602.28
2022-09-06T09:46:13.019Z,101606.56
2022-09-06T09:48:41.523Z,101597.88
2022-09-06T09:51:26.629Z,101595.84
2022-09-06T09:54:01.971Z,101607.88
2022-09-06T09:56:43.637Z,101604.41
2022-09-06T09:59:23.837Z,101598.34
2022-09-06T10:01:54.033Z,101612.28
2022-09-06T10:04:45.012Z,101601.78
2022-09-06T10:07:17.709Z,101602.75
2022-09-06T10:09:48.531Z,101595.72
2022-09-06T10:12:32.798Z,101596.69
2022-09-06T10:15:02.407Z,101601.91
2022-09-06T10:17:47.904Z,101595.84
2022-09-06T10:20:14.827Z,101600.25
2022-09-06T10:23:02.159Z,101597.63
2022-09-06T10:25:49.055Z,101595.94
2022-09-06T10:28:30.119Z,101599.41
2022-09-06T10:31:10.447Z,101590.69
2022-09-06T10:33:48.528Z,101595.94
2022-09-06T10:36:20.924Z,101600.38
2022-09-06T10:39:02.985Z,101595.94
2022-09-06T10:41:49.427Z,101594.28
2022-09-06T10:44:30.946Z,101599.66
2022-09-06T10:47:09.049Z,101602.16
2022-09-06T10:49:38.038Z,101604.78
2022-09-06T10:52:08.586Z,101595.13
2022-09-06T10:54:39.599Z,101607.28
2022-09-06T11:00:16.603Z,101610.03
2022-09-06T11:06:02.113Z,101601.19
2022-09-06T11:08:50.376Z,101606.22
2022-09-06T11:11:26.209Z,101603.34
2022-09-06T11:13:52.627Z,101615.50
2022-09-06T11:16:24.977Z,101605.97
2022-09-06T11:19:17.670Z,101605.97
2022-09-06T11:22:10.481Z,101615.63
2022-09-06T11:25:10.767Z,101625.03
2022-09-06T11:27:41.088Z,101626.84
2022-09-06T11:30:15.010Z,101631.97
2022-09-06T11:32:48.786Z,101635.53
2022-09-06T11:35:26.142Z,101635.53
2022-09-06T11:38:15.778Z,101630.28
2022-09-06T11:40:48.800Z,101629.34
2022-09-06T11:43:40.892Z,101629.22
2022-09-06T11:46:07.501Z,101625.66
2022-09-06T11:48:43.532Z,101629.91
2022-09-06T11:51:13.261Z,101634.34
2022-09-06T11:53:59.823Z,101630.78
2022-09-06T11:56:40.778Z,101638.50
2022-09-06T11:59:13.463Z,101635.03
2022-09-06T12:01:40.988Z,101628.84
2022-09-06T12:04:09.916Z,101632.41
2022-09-06T12:06:40.582Z,101630.78
2022-09-06T12:09:26.894Z,101626.22
2022-09-06T12:11:53.435Z,101627.91
2022-09-06T12:14:19.727Z,101616.56
2022-09-06T12:17:01.419Z,101613.94
2022-09-06T12:19:52.436Z,101643.53
2022-09-06T12:22:33.951Z,101628.72
2022-09-06T12:25:02.437Z,101627.78
2022-09-06T12:27:34.924Z,101626.78
2022-09-06T12:30:04.307Z,101622.28
2022-09-06T12:32:37.591Z,101614.28
2022-09-06T12:38:17.088Z,101612.47
2022-09-06T12:40:51.508Z,101609.72
2022-09-06T12:43:19.031Z,101621.09
2022-09-06T12:45:48.885Z,101617.47
2022-09-06T12:48:33.368Z,101612.22
2022-09-06T12:51:09.560Z,101603.53
2022-09-06T12:53:35.912Z,101596.50
2022-09-06T12:56:09.593Z,101589.59
2022-09-06T12:58:36.740Z,101585.16
2022-09-06T13:01:13.430Z,101587.78
2022-09-06T13:04:02.628Z,101590.41
2022-09-06T13:06:30.746Z,101593.88
2022-09-06T13:08:58.658Z,101593.88
2022-09-06T13:11:46.194Z,101592.09
2022-09-06T13:14:18.409Z,101587.66
2022-09-06T13:16:47.469Z,101590.41
2022-09-06T13:19:17.263Z,101587.66
2022-09-06T13:21:46.267Z,101577.16
2022-09-06T13:24:28.333Z,101569.19
2022-09-06T13:26:54.730Z,101571.69
2022-09-06T13:29:39.365Z,101568.09
2022-09-06T13:32:14.500Z,101556.06
2022-09-06T13:34:50.681Z,101559.41
2022-09-06T13:37:17.138Z,101552.47
2022-09-06T13:39:44.007Z,101549.03
2022-09-06T13:42:25.530Z,101546.28
2022-09-06T13:44:51.938Z,101543.66
2022-09-06T13:47:18.462Z,101540.06
2022-09-06T13:49:45.286Z,101540.91
2022-09-06T13:52:11.704Z,101536.63
2022-09-06T13:54:39.163Z,101531.38
2022-09-06T13:57:05.879Z,101524.44
2022-09-06T13:59:32.275Z,101514.78
2022-09-06T14:02:06.840Z,101510.38
2022-09-06T14:04:34.281Z,101513.81
2022-09-06T14:07:00.666Z,101513.00
2022-09-06T14:09:27.167Z,101513.94
2022-09-06T14:11:53.534Z,101507.88
2022-09-06T14:14:20.127Z,101518.25
2022-09-06T14:16:47.618Z,101517.53
2022-09-06T14:19:15.000Z,101529.69
2022-09-06T14:21:41.430Z,101533.16
2022-09-06T14:24:08.090Z,101528.03
2022-09-06T14:26:36.365Z,101530.53
2022-09-06T14:29:03.699Z,101533.16
2022-09-06T14:31:32.507Z,101538.28
2022-09-06T14:34:00.698Z,101530.41
2022-09-06T14:36:31.750Z,101538.16
2022-09-06T14:39:00.168Z,101536.47
2022-09-06T14:41:27.500Z,101545.06
2022-09-06T14:43:56.991Z,101548.53
2022-09-06T14:46:24.980Z,101550.31
2022-09-06T14:49:00.703Z,101542.31
2022-09-06T14:51:27.890Z,101540.53
2022-09-06T14:53:57.242Z,101537.91
2022-09-06T14:56:24.096Z,101537.78
2022-09-06T14:58:50.753Z,101535.84
2022-09-06T15:01:23.238Z,101535.03
2022-09-06T15:03:52.008Z,101522.72
2022-09-06T15:06:21.371Z,101523.44
2022-09-06T15:08:48.485Z,101526.78
2022-09-06T15:11:27.135Z,101516.16
2022-09-06T15:13:53.487Z,101508.28
2022-09-06T15:16:19.988Z,101505.50
2022-09-06T15:18:46.613Z,101500.25
2022-09-06T15:21:15.524Z,101497.63
2022-09-06T15:23:42.945Z,101501.94
2022-09-06T15:26:10.899Z,101498.25
2022-09-06T15:28:39.081Z,101495.34
2022-09-06T15:31:06.933Z,101495.34
2022-09-06T15:33:35.423Z,101497.13
2022-09-06T15:36:08.423Z,101498.81
2022-09-06T15:38:43.545Z,101494.44
2022-09-06T15:41:12.791Z,101495.13
2022-09-06T15:43:42.563Z,101495.81
2022-09-06T15:46:09.547Z,101501.91
2022-09-06T15:48:44.695Z,101508.69
2022-09-06T15:51:13.554Z,101507.88
2022-09-06T15:53:40.477Z,101507.03
2022-09-06T15:56:08.324Z,101512.16
2022-09-06T15:58:34.940Z,101496.53
2022-09-06T16:01:06.054Z,101503.44
2022-09-06T16:03:35.298Z,101491.97
2022-09-06T16:08:55.836Z,101506.06
2022-09-06T16:11:22.226Z,101502.75
2022-09-06T16:13:49.023Z,101500.25
2022-09-06T16:16:16.554Z,101497.75
2022-09-06T16:18:45.019Z,101487.25
2022-09-06T16:21:18.158Z,101491.69
2022-09-06T16:23:49.943Z,101488.19
2022-09-06T16:26:21.160Z,101484.75
2022-09-06T16:28:49.941Z,101476.63
2022-09-06T16:31:16.952Z,101479.13
2022-09-06T16:33:45.066Z,101478.97
2022-09-06T16:36:12.458Z,101472.19
2022-09-06T16:38:39.919Z,101483.69
2022-09-06T16:41:14.478Z,101485.56
2022-09-06T16:43:41.121Z,101486.56
2022-09-06T16:46:07.851Z,101485.69
2022-09-06T16:48:34.719Z,101479.59
2022-09-06T16:51:16.428Z,101480.69
2022-09-06T16:53:45.003Z,101474.63
2022-09-06T16:56:12.903Z,101483.19
2022-09-06T16:58:39.512Z,101483.44
2022-09-06T17:01:07.749Z,101488.81
2022-09-06T17:03:35.702Z,101482.75
2022-09-06T17:06:02.422Z,101493.25
2022-09-06T17:08:31.686Z,101485.38
2022-09-06T17:11:06.154Z,101482.75
2022-09-06T17:13:33.238Z,101479.25
2022-09-06T17:16:22.099Z,101481.06
2022-09-06T17:18:49.757Z,101488.94
2022-09-06T17:21:16.285Z,101481.19
2022-09-06T17:23:42.683Z,101485.50
2022-09-06T17:26:09.070Z,101485.59
2022-09-06T17:28:38.038Z,101483.09
2022-09-06T17:31:05.550Z,101488.13
2022-09-06T17:33:32.085Z,101490.97
2022-09-06T17:36:13.444Z,101490.84
2022-09-06T17:38:40.860Z,101487.53
2022-09-06T17:41:07.696Z,101490.84
2022-09-06T17:43:37.528Z,101489.34
2022-09-06T17:46:04.513Z,101487.66
2022-09-06T17:48:30.919Z,101488.47
2022-09-06T17:51:05.079Z,101495.53
2022-09-06T17:53:31.826Z,101499.69
2022-09-06T17:55:58.435Z,101495.28
2022-09-06T17:58:24.871Z,101491.81
2022-09-06T18:00:51.742Z,101487.28
2022-09-06T18:03:18.168Z,101492.53
2022-09-06T18:05:45.193Z,101493.47
2022-09-06T18:08:11.751Z,101496.81
2022-09-06T18:10:38.471Z,101501.94
2022-09-06T18:13:06.056Z,101499.31
2022-09-06T18:15:38.307Z,101502.88
2022-09-06T18:18:04.812Z,101503.75
2022-09-06T18:20:31.190Z,101490.75
2022-09-06T18:22:57.983Z,101485.59
2022-09-06T18:25:24.549Z,101486.44
2022-09-06T18:27:51.137Z,101486.44
2022-09-06T18:30:17.790Z,101478.69
2022-09-06T18:32:44.658Z,101469.84
2022-09-06T18:35:11.224Z,101466.41
2022-09-06T18:37:38.506Z,101463.78
2022-09-06T18:40:05.962Z,101459.34
2022-09-06T18:42:33.092Z,101462.81
2022-09-06T18:44:59.466Z,101464.59
2022-09-06T18:47:25.817Z,101467.22
2022-09-06T18:49:52.165Z,101465.56
2022-09-06T18:52:20.282Z,101456.03
2022-09-06T18:54:46.643Z,101463.09
2022-09-06T18:57:14.554Z,101460.47
2022-09-06T18:59:40.898Z,101467.47
2022-09-06T19:02:07.380Z,101463.22
2022-09-06T19:04:33.829Z,101454.34
2022-09-06T19:07:02.222Z,101450.09
2022-09-06T19:09:28.573Z,101439.59
2022-09-06T19:11:54.984Z,101438.59
2022-09-06T19:14:21.955Z,101438.59
2022-09-06T19:16:50.014Z,101434.22
2022-09-06T19:19:16.535Z,101430.75
2022-09-06T19:21:43.020Z,101422.03
2022-09-06T19:24:11.414Z,101428.97
2022-09-06T19:26:40.766Z,101422.72
2022-09-06T19:29:11.562Z,101435.03
2022-09-06T19:31:38.484Z,101428.84
2022-09-06T19:34:05.213Z,101424.53
2022-09-06T19:36:32.577Z,101418.47
2022-09-06T19:39:05.746Z,101412.38
2022-09-06T19:41:36.017Z,101410.59
2022-09-06T19:44:05.348Z,101399.25
2022-09-06T19:46:31.883Z,101394.97
2022-09-06T19:48:58.685Z,101386.25
2022-09-06T19:51:25.074Z,101394.13
2022-09-06T19:53:53.807Z,101385.28
2022-09-06T19:56:23.311Z,101376.47
2022-09-06T19:58:58.164Z,101374.66
2022-09-06T20:01:28.950Z,101373.72
2022-09-06T20:03:55.484Z,101372.72
2022-09-06T20:06:22.437Z,101372.72
2022-09-06T20:08:51.592Z,101361.41
2022-09-06T20:11:20.135Z,101357.13
2022-09-06T20:13:46.847Z,101359.75
2022-09-06T20:16:13.728Z,101352.84
2022-09-06T20:18:40.581Z,101358.91
2022-09-06T20:21:07.812Z,101346.75
2022-09-06T20:23:35.329Z,101344.13
2022-09-06T20:26:08.424Z,101344.13
2022-09-06T20:28:35.299Z,101337.22
2022-09-06T20:31:07.600Z,101339.84
2022-09-06T20:33:35.137Z,101338.19
2022-09-06T20:36:03.886Z,101333.88
2022-09-06T20:38:35.191Z,101327.81
2022-09-06T20:41:09.950Z,101319.13
2022-09-06T20:43:37.702Z,101324.38
2022-09-06T20:46:08.616Z,101329.72
2022-09-06T20:48:42.101Z,101321.03
2022-09-06T20:51:15.795Z,101321.84
2022-09-06T20:53:42.448Z,101321.75
2022-09-06T20:56:17.409Z,101313.03
2022-09-06T20:58:55.358Z,101310.53
2022-09-06T21:01:24.887Z,101304.34
2022-09-06T21:03:56.796Z,101312.34
2022-09-06T21:06:24.507Z,101310.53
2022-09-06T21:08:51.580Z,101286.91
2022-09-06T21:11:18.676Z,101278.22
2022-09-06T21:13:50.113Z,101286.09
2022-09-06T21:16:19.378Z,101277.25
2022-09-06T21:18:53.970Z,101264.25
2022-09-06T21:21:21.444Z,101266.06
2022-09-06T21:23:48.176Z,101275.59
2022-09-06T21:26:18.192Z,101283.59
2022-09-06T21:28:46.126Z,101277.38
2022-09-06T21:31:16.730Z,101274.75
2022-09-06T21:33:48.264Z,101277.50
2022-09-06T21:36:17.162Z,101264.25
2022-09-06T21:38:45.601Z,101271.31
2022-09-06T21:41:13.415Z,101259.13
2022-09-06T21:43:39.807Z,101270.47
2022-09-06T21:46:09.740Z,101275.72
2022-09-06T21:48:40.459Z,101267.84
2022-09-06T21:51:07.963Z,101261.63
2022-09-06T21:53:35.431Z,101262.59
2022-09-06T21:56:03.581Z,101256.50
2022-09-06T21:58:30.446Z,101258.19
2022-09-06T22:01:01.807Z,101255.56
2022-09-06T22:03:31.000Z,101260.81
2022-09-06T22:05:58.052Z,101263.28
2022-09-06T22:08:25.274Z,101280.00
2022-09-06T22:10:51.911Z,101269.50
2022-09-06T22:13:19.587Z,101265.22
2022-09-06T22:15:46.185Z,101267.84
2022-09-06T22:18:13.445Z,101278.34
2022-09-06T22:20:39.812Z,101287.19
2022-09-06T22:23:07.507Z,101294.22
2022-09-06T22:25:34.128Z,101314.38
2022-09-06T22:28:01.173Z,101364.22
2022-09-06T22:30:28.076Z,101428.19
2022-09-06T22:32:54.490Z,101445.72
2022-09-06T22:35:21.873Z,101460.63
2022-09-06T22:37:48.558Z,101500.94
2022-09-06T22:40:15.021Z,101549.03
2022-09-06T22:42:41.368Z,101565.47
2022-09-06T22:45:08.181Z,101538.41
2022-09-06T22:47:34.538Z,101534.94
2022-09-06T22:50:01.278Z,101532.44
2022-09-06T22:52:27.914Z,101538.63
2022-09-06T22:54:54.247Z,101535.19
2022-09-06T22:57:20.600Z,101526.50
2022-09-06T22:59:46.976Z,101522.88
2022-09-06T23:02:13.336Z,101523.88
2022-09-06T23:04:39.740Z,101505.50
2022-09-06T23:07:06.258Z,101503.00
2022-09-06T23:09:32.604Z,101469.84
2022-09-06T23:12:02.172Z,101484.75
2022-09-06T23:14:28.957Z,101469.16
2022-09-06T23:16:55.298Z,101469.16
2022-09-06T23:19:21.659Z,101479.66
2022-09-06T23:21:48.043Z,101477.16
2022-09-06T23:24:14.399Z,101482.41
2022-09-06T23:26:40.795Z,101471.91
2022-09-06T23:29:07.924Z,101464.03
2022-09-06T23:31:34.782Z,101471.91
2022-09-06T23:34:02.550Z,101472.84
2022-09-06T23:36:29.124Z,101483.34
2022-09-06T23:38:56.047Z,101474.63
2022-09-06T23:41:23.492Z,101462.34
2022-09-06T23:43:49.970Z,101455.44
2022-09-06T23:46:17.002Z,101444.13
2022-09-06T23:48:43.450Z,101422.28
2022-09-06T23:51:10.546Z,101418.84
2022-09-06T23:53:37.041Z,101419.78
2022-09-06T23:56:04.266Z,101410.13
2022-09-06T23:58:31.022Z,101417.16
